• Join FlightAware (Why Join?)
  • Login
  • US Flag 
07:29PM EDT


 

Airport Tracker/Info


-or-


 

Live Flight TrackerFlight Track Log ✈ DAL268 ✈ 02-Jul-2013 ✈ KJFK - LLBG / TLV

Flight Track Log - Related Links

Times and Time Zones

All times are in EDT time to prevent confusion due to time zone crossing. See the DAL268 flight status page for this flight to view local times or setup timezone preferences in your user account.

Time Position Orientation Groundspeed Altitude Reporting Facility
EDT Latitude Longitude Course Direction KTS MPH feet Rate Location/Type
11:53PM 40.6370 -73.7800 264° West 2 2  Level FlightAware
11:56PM 40.6370 -73.7790 90° East 9 10  Level FlightAware
11:56PM 40.6380 -73.7790 360° North 10 12  Level FlightAware
11:58PM 40.6370 -73.7790 180° South 2 2  Level FlightAware
12:01AM 40.9123 -73.5210 37° Northeast  Level FlightAware Approximate
12:02AM 41.0241 -73.4221 30° Northeast  Level FlightAware Approximate
12:03AM 41.1469 -73.3349 21° North  Level FlightAware Approximate
12:03AM 40.6360 -73.7790 21° North 19 22  Level FlightAware
12:04AM 40.6360 -73.7780 90° East 14 16  Level FlightAware
12:04AM 40.6360 -73.7770 90° East 24 28  Level FlightAware
12:05AM 40.6370 -73.7760 37° Northeast 30 35  Level FlightAware
12:05AM 40.6390 -73.7750 21° North 34 39  Level FlightAware
12:05AM 40.6400 -73.7740 37° Northeast 29 33  Level FlightAware
12:06AM 40.6410 -73.7730 37° Northeast 33 38  Level FlightAware
12:06AM 40.6430 -73.7720 21° North 29 33  Level FlightAware
12:07AM 40.6440 -73.7710 37° Northeast 26 30  Level FlightAware
12:07AM 40.6460 -73.7710 360° North 29 33  Level FlightAware
12:08AM 40.6470 -73.7710 360° North 22 25  Level FlightAware
12:08AM 40.6480 -73.7720 323° Northwest 16 18  Level FlightAware
12:09AM 40.6480 -73.7710 90° East 24 28  Level FlightAware
12:09AM 40.6490 -73.7690 57° Northeast 19 22  Level FlightAware
12:10AM 40.6490 -73.7680 90° East 2 2  Level FlightAware
12:12AM 40.8435 -73.5898 37° Northeast  Level FlightAware Approximate
12:12AM 40.6490 -73.7670 37° Northeast 9 10  Level FlightAware
12:13AM 40.6490 -73.7660 90° East 12 14  Level FlightAware
12:15AM 40.6490 -73.7650 North 17 20  Level FlightAware
12:16AM 40.9333 -73.5000 North  Level FlightAware Approximate
12:16AM 40.6480 -73.7650 180° South 11 13  Level FlightAware
12:16AM 40.6470 -73.7660 217° Southwest 41 47 120 Level FlightAware
12:17AM 40.6220 -73.7860 211° Southwest 171 197 200 960 Climbing FlightAware
12:17AM 40.6040 -73.8000 211° Southwest 170 196 1,200 1,740 Climbing FlightAware
12:18AM 40.5820 -73.8150 207° Southwest 192 221 1,900 960 Climbing FlightAware
12:18AM 40.5660 -73.8250 205° Southwest 220 253 2,000 840 Climbing FlightAware
12:18AM 40.5500 -73.8360 208° Southwest 237 273 2,400 1,740 Climbing FlightAware
12:19AM 40.5264 -73.8448 196° South 259 298 3,100 1,980 Climbing FlightAware ADS-B
12:19AM 40.5227 -73.8445 176° South 264 304 3,200 2,640 Climbing FlightAware ADS-B
12:19AM 40.5153 -73.8428 170° South 270 311 3,500 3,000 Climbing FlightAware ADS-B
12:19AM 40.5107 -73.8407 161° South 275 316 3,700 2,520 Climbing FlightAware ADS-B
12:19AM 40.5071 -73.8387 157° South 279 321 3,800 1,980 Climbing FlightAware ADS-B
12:19AM 40.5035 -73.8362 152° Southeast 285 328 3,900 1,980 Climbing FlightAware ADS-B
12:19AM 40.4971 -73.8301 144° Southeast 293 337 4,100 1,980 Climbing FlightAware ADS-B
12:19AM 40.4940 -73.8264 138° Southeast 298 343 4,200 1,980 Climbing FlightAware ADS-B
12:19AM 40.4886 -73.8181 131° Southeast 304 350 4,400 2,400 Climbing FlightAware ADS-B
12:19AM 40.4862 -73.8134 124° Southeast 307 353 4,600 3,300 Climbing FlightAware ADS-B
12:19AM 40.4827 -73.8033 114° Southeast 310 357 4,900 3,720 Climbing FlightAware ADS-B
12:20AM 40.4813 -73.7979 109° East 312 359 5,100 3,000 Climbing FlightAware ADS-B
12:20AM 40.4798 -73.7886 102° East 315 362 5,300 2,220 Climbing FlightAware ADS-B
12:20AM 40.4793 -73.7831 97° East 319 367 5,400 1,980 Climbing FlightAware ADS-B
12:20AM 40.4793 -73.7714 90° East 322 371 5,600 2,640 Climbing FlightAware ADS-B
12:20AM 40.4798 -73.7653 84° East 326 375 5,800 2,520 Climbing FlightAware ADS-B
12:20AM 40.4811 -73.7576 77° East 329 379 5,900 1,500 Climbing FlightAware ADS-B
12:20AM 40.4830 -73.7499 72° East 332 382 6,000 2,220 Climbing FlightAware ADS-B
12:20AM 40.4857 -73.7424 65° Northeast 335 386 6,200 1,980 Climbing FlightAware ADS-B
12:20AM 40.4897 -73.7336 59° Northeast 339 390 6,300 1,620 Climbing FlightAware ADS-B
12:20AM 40.4959 -73.7240 50° Northeast 339 390 6,500 1,980 Climbing FlightAware ADS-B
12:20AM 40.4993 -73.7197 44° Northeast 338 389 6,600 960 Climbing FlightAware ADS-B
12:20AM 40.5030 -73.7157 39° Northeast 338 389 6,600  Level FlightAware ADS-B
12:20AM 40.5082 -73.7109 35° Northeast 335 386 6,600 960 Level FlightAware ADS-B
12:20AM 40.5187 -73.7026 31° Northeast 334 384 6,800 720 Climbing FlightAware ADS-B
12:21AM 40.5404 -73.6871 28° Northeast 336 387 6,900 1,260 Climbing FlightAware ADS-B
12:21AM 40.5624 -73.6717 28° Northeast 340 391 7,500 2,880 Climbing FlightAware ADS-B
12:21AM 40.5828 -73.6573 28° Northeast 331 381 8,400 2,880 Climbing FlightAware ADS-B
12:22AM 40.6040 -73.6430 27° Northeast 334 384 9,000 2,100 Climbing FlightAware ADS-B
12:22AM 40.6253 -73.6286 27° Northeast 343 395 9,500 1,980 Climbing FlightAware ADS-B
12:22AM 40.6482 -73.6138 26° Northeast 351 404 10,000 1,680 Climbing FlightAware ADS-B
12:23AM 40.6937 -73.5861 25° Northeast 370 426 10,800 780 Climbing FlightAware ADS-B
12:23AM 40.7490 -73.5490 27° Northeast 418 481 10,900 1,020 Climbing FlightAware
12:24AM 40.8310 -73.4970 26° Northeast 444 511 12,200 1,560 Climbing FlightAware
12:24AM 40.8622 -73.4769 26° Northeast 449 517 12,500 1,140 Climbing FlightAware ADS-B
12:24AM 40.8984 -73.4544 25° Northeast 451 519 12,900 1,800 Climbing FlightAware ADS-B
12:25AM 40.9557 -73.4158 27° Northeast 456 525 14,000 2,160 Climbing FlightAware ADS-B
12:25AM 41.0130 -73.3779 27° Northeast 462 532 15,100 2,160 Climbing FlightAware ADS-B
12:26AM 41.0967 -73.3235 26° Northeast 467 537 16,700 2,040 Climbing FlightAware ADS-B
12:27AM 41.1402 -73.2880 32° Northeast 477 549 17,400 1,860 Climbing FlightAware ADS-B
12:27AM 41.1878 -73.2359 39° Northeast 481 554 18,300 1,980 Climbing FlightAware ADS-B
12:28AM 41.2482 -73.1488 47° Northeast 482 555 19,700 1,740 Climbing FlightAware ADS-B
12:29AM 41.3340 -73.0200 48° Northeast 495 570 21,200 1,500 Climbing FlightAware
12:29AM 41.3930 -72.9250 50° Northeast 504 580 22,200 1,500 Climbing FlightAware
12:30AM 41.4430 -72.8340 54° Northeast 511 588 23,100 1,380 Climbing FlightAware
12:31AM 41.5040 -72.7220 54° Northeast 518 596 24,100 900 Climbing FlightAware
12:31AM 41.5550 -72.6310 53° Northeast 521 600 24,400 840 Climbing FlightAware
12:32AM 41.6250 -72.5060 53° Northeast 528 608 25,400 1,380 Climbing FlightAware
12:33AM 41.6570 -72.4470 54° Northeast 26,600 1,560 Climbing FlightAware
12:33AM 41.6890 -72.3880 54° Northeast 539 620 27,100 780 Climbing FlightAware
12:34AM 41.7670 -72.2450 54° Northeast 547 629 27,800 1,320 Climbing FlightAware
12:35AM 41.8980 -72.0020 54° Northeast 537 618 29,700 1,620 Climbing FlightAware
12:36AM 41.9520 -71.9020 54° Northeast 532 612 30,500 900 Climbing FlightAware
12:37AM 42.0220 -71.7690 55° Northeast 531 611 31,000 360 Climbing FlightAware
12:37AM 42.0730 -71.6740 54° Northeast 530 610 31,000  Level FlightAware
12:38AM 42.1360 -71.5550 54° Northeast 533 613 31,000  Level FlightAware
12:39AM 42.1950 -71.4440 54° Northeast 534 615 31,000  Level FlightAware
12:39AM 42.2450 -71.3490 55° Northeast 536 617 31,000  Level FlightAware
12:40AM 42.3020 -71.2390 55° Northeast 538 619 31,000  Level FlightAware
12:40AM 42.3560 -71.1380 54° Northeast 539 620 31,000  Level FlightAware
12:41AM 42.4200 -71.0130 55° Northeast 537 618 31,000  Level FlightAware
12:42AM 42.4880 -70.8820 55° Northeast 540 621 31,000  Level FlightAware
12:43AM 42.5470 -70.7670 55° Northeast 541 623 31,000  Level FlightAware
12:43AM 42.6110 -70.6440 55° Northeast 542 624 31,000  Level FlightAware
12:44AM 42.6560 -70.5560 55° Northeast 543 625 31,000  Level FlightAware
12:44AM 42.6970 -70.4740 56° Northeast 543 625 31,000  Level FlightAware
12:45AM 42.7580 -70.3550 55° Northeast 548 631 31,000  Level FlightAware
12:46AM 42.8190 -70.2360 55° Northeast 548 631 31,000  Level FlightAware
12:47AM 42.8850 -70.1020 56° Northeast 548 631 31,000  Level FlightAware
12:47AM 42.9330 -70.0080 55° Northeast 547 629 31,000  Level FlightAware
12:48AM 42.9910 -69.8920 56° Northeast 545 627 31,000  Level FlightAware
12:49AM 43.0740 -69.7270 55° Northeast 542 624 31,000  Level FlightAware
12:50AM 43.1390 -69.5960 56° Northeast 542 624 31,000  Level FlightAware
12:51AM 43.2280 -69.4160 56° Northeast 543 625 31,000  Level FlightAware
12:52AM 43.3150 -69.2370 56° Northeast 544 626 31,000  Level FlightAware
12:52AM 43.3740 -69.1170 56° Northeast 544 626 31,000  Level FlightAware
12:53AM 43.4170 -69.0290 56° Northeast 544 626 31,000  Level FlightAware
12:54AM 43.4740 -68.9120 56° Northeast 544 626 31,000  Level FlightAware
12:55AM 43.5210 -68.8170 56° Northeast 544 626 31,000  Level FlightAware
12:55AM 43.5650 -68.7260 56° Northeast 544 626 31,000  Level FlightAware
12:56AM 43.6080 -68.6380 56° Northeast 544 626 31,000  Level FlightAware
12:57AM 43.6650 -68.5200 56° Northeast 544 626 31,000  Level FlightAware
12:57AM 43.7070 -68.4340 56° Northeast 544 626 31,000  Level FlightAware
12:58AM 43.7520 -68.3440 55° Northeast 544 626 31,000  Level FlightAware
12:59AM 43.8080 -68.2280 56° Northeast 544 626 31,000  Level FlightAware
12:59AM 43.8510 -68.1400 56° Northeast 544 626 31,000  Level FlightAware
01:00AM 43.8920 -68.0560 56° Northeast 544 626 31,000  Level FlightAware
01:01AM 44.0740 -67.6450 58° Northeast 542 624 31,000  Level FlightAware
01:01AM 44.1200 -67.5450 57° Northeast 542 624 31,000  Level FlightAware
01:02AM 44.1830 -67.4060 58° Northeast 543 625 31,000  Level FlightAware
01:03AM 44.2440 -67.2740 57° Northeast 543 625 31,000  Level FlightAware
01:04AM 44.3200 -67.1080 57° Northeast 543 625 31,000  Level FlightAware
01:05AM 44.3840 -66.9660 58° Northeast 542 624 31,000  Level FlightAware
01:05AM 44.4400 -66.8410 58° Northeast 541 623 31,000  Level FlightAware
01:06AM 44.4890 -66.7320 58° Northeast 542 624 31,000  Level FlightAware
01:07AM 44.5380 -66.6250 57° Northeast 542 624 31,000  Level FlightAware
01:07AM 44.6000 -66.4850 58° Northeast 540 621 31,000  Level FlightAware
01:08AM 44.6530 -66.3660 58° Northeast 540 621 31,000  Level FlightAware
01:09AM 44.7130 -66.2290 58° Northeast 540 621 31,000  Level FlightAware
01:09AM 44.7670 -66.1060 58° Northeast 541 623 31,000  Level FlightAware
01:10AM 44.8210 -65.9830 58° Northeast 544 626 31,000  Level FlightAware
01:11AM 44.8740 -65.8630 58° Northeast 544 626 31,000  Level FlightAware
01:11AM 44.9210 -65.7540 59° Northeast 545 627 31,000  Level FlightAware
01:12AM 44.9790 -65.6200 59° Northeast 545 627 31,000  Level FlightAware
01:13AM 45.0350 -65.4890 59° Northeast 544 626 31,000  Level FlightAware
01:13AM 45.0760 -65.3920 59° Northeast 544 626 31,000  Level FlightAware
01:14AM 45.1340 -65.2570 59° Northeast 547 629 31,000  Level FlightAware
01:15AM 45.1880 -65.1310 59° Northeast 549 632 31,000  Level FlightAware
01:15AM 45.2360 -65.0200 58° Northeast 551 634 31,000  Level FlightAware
01:16AM 45.2880 -64.8930 60° Northeast 550 633 31,000  Level FlightAware
01:17AM 45.3340 -64.7840 59° Northeast 550 633 31,000  Level FlightAware
01:17AM 45.3990 -64.6290 59° Northeast 549 632 31,000  Level FlightAware
01:18AM 45.4510 -64.5020 60° Northeast 548 631 31,000  Level FlightAware
01:19AM 45.4950 -64.3960 59° Northeast 548 631 31,000  Level FlightAware
01:19AM 45.5490 -64.2690 59° Northeast 548 631 31,000  Level FlightAware
01:20AM 45.5890 -64.1740 59° Northeast 548 631 31,000  Level FlightAware
01:21AM 45.6420 -64.0480 59° Northeast 548 631 31,000  Level FlightAware
01:21AM 45.6820 -63.9520 59° Northeast 548 631 31,000  Level FlightAware
01:22AM 45.7220 -63.8570 59° Northeast 548 631 31,000  Level FlightAware
01:23AM 45.7760 -63.7270 59° Northeast 548 631 31,000  Level FlightAware
01:23AM 45.8160 -63.6320 59° Northeast 548 631 31,000  Level FlightAware
01:24AM 45.8710 -63.5020 59° Northeast 548 631 31,000  Level FlightAware
01:25AM 45.9140 -63.3990 59° Northeast 548 631 31,000  Level FlightAware
01:26AM 46.0450 -63.0370 62° Northeast 549 632 31,000  Level FlightAware
01:27AM 46.0830 -62.9400 61° Northeast 549 632 31,000  Level FlightAware
01:27AM 46.1390 -62.7920 61° Northeast 548 631 31,000  Level FlightAware
01:28AM 46.2060 -62.6200 61° Northeast 549 632 31,000  Level FlightAware
01:29AM 46.2520 -62.5010 61° Northeast 551 634 31,000  Level FlightAware
01:29AM 46.3090 -62.3530 61° Northeast 551 634 31,000  Level FlightAware
01:30AM 46.3590 -62.2200 61° Northeast 552 635 31,000  Level FlightAware
01:31AM 46.4130 -62.0810 61° Northeast 553 636 31,000  Level FlightAware
01:32AM 46.4620 -61.9510 61° Northeast 554 638 31,000  Level FlightAware
01:32AM 46.5070 -61.8310 61° Northeast 553 636 31,000  Level FlightAware
01:33AM 46.5580 -61.6940 62° Northeast 552 635 31,000  Level FlightAware
01:34AM 46.6120 -61.5510 61° Northeast 553 636 31,000  Level FlightAware
01:34AM 46.6500 -61.4490 61° Northeast 553 636 31,000  Level FlightAware
01:35AM 46.7020 -61.3090 62° Northeast 553 636 31,000  Level FlightAware
01:36AM 46.7530 -61.1710 62° Northeast 553 636 31,000  Level FlightAware
01:36AM 46.8020 -61.0360 62° Northeast 553 636 31,000  Level FlightAware
01:37AM 46.8560 -60.8880 62° Northeast 552 635 31,000  Level FlightAware
01:38AM 46.9060 -60.7490 62° Northeast 551 634 31,000  Level FlightAware
01:38AM 46.9520 -60.6210 62° Northeast 550 633 31,000  Level FlightAware
01:39AM 47.0100 -60.4600 62° Northeast 548 631 31,000 360 Level FlightAware
01:40AM 47.0600 -60.3220 62° Northeast 549 632 31,600 900 Climbing FlightAware
01:41AM 47.1090 -60.1790 63° Northeast 551 634 32,300 900 Climbing FlightAware
01:41AM 47.1490 -60.0700 62° Northeast 554 638 32,800 480 Climbing FlightAware
01:42AM 47.2030 -59.9150 63° Northeast 555 639 33,000 120 Climbing FlightAware
01:43AM 47.2620 -59.7470 63° Northeast 555 639 33,000  Level FlightAware
01:43AM 47.2990 -59.6450 62° Northeast 555 639 33,000  Level FlightAware
01:44AM 47.3770 -59.4110 64° Northeast 547 629 33,000  Level FlightAware
01:45AM 47.4270 -59.2650 63° Northeast 547 629 33,000  Level FlightAware
01:46AM 47.4770 -59.1180 63° Northeast 546 628 33,000  Level FlightAware
01:47AM 47.5320 -58.9580 63° Northeast 546 628 33,000  Level FlightAware
01:47AM 47.5690 -58.8530 62° Northeast 546 628 33,000  Level FlightAware
01:48AM 47.6150 -58.7170 63° Northeast 546 628 33,000  Level FlightAware
01:49AM 47.6520 -58.6090 63° Northeast 546 628 33,000  Level FlightAware
01:49AM 47.6870 -58.5070 63° Northeast 546 628 33,000  Level FlightAware
01:51AM 47.7600 -58.2960 63° Northeast 546 628 33,000  Level FlightAware
01:51AM 47.7950 -58.1940 63° Northeast 546 628 33,000  Level FlightAware
01:52AM 47.8510 -57.8180 77° East 552 635 33,000  Level FlightAware
01:53AM 47.8770 -57.6670 76° East 551 634 33,000  Level FlightAware
01:54AM 47.9000 -57.5250 76° East 552 635 33,000  Level FlightAware
01:54AM 47.9300 -57.3710 74° East 550 633 33,000  Level FlightAware
01:55AM 47.9600 -57.2060 75° East 551 634 33,000  Level FlightAware
01:56AM 47.9830 -57.0770 75° East 552 635 33,000  Level FlightAware
01:56AM 48.0150 -56.8970 75° East 552 635 33,000  Level FlightAware
01:57AM 48.0340 -56.7870 75° East 551 634 33,000  Level FlightAware
01:58AM 48.0650 -56.6140 75° East 550 633 33,000  Level FlightAware
01:59AM 48.0980 -56.4150 76° East 550 633 33,000  Level FlightAware
01:59AM 48.1170 -56.3080 75° East 550 633 33,000  Level FlightAware
02:00AM 48.1560 -56.0760 76° East 550 633 33,000  Level FlightAware
02:01AM 48.1820 -55.9240 76° East 550 633 33,000  Level FlightAware
02:01AM 48.2080 -55.7660 76° East 549 632 33,000  Level FlightAware
02:02AM 48.2340 -55.6040 76° East 546 628 33,000  Level FlightAware
02:03AM 48.2590 -55.4540 76° East 544 626 33,000  Level FlightAware
02:04AM 48.2830 -55.3040 76° East 542 624 33,000  Level FlightAware
02:04AM 48.3020 -55.1830 77° East 541 623 33,000  Level FlightAware
02:05AM 48.3270 -55.0260 76° East 541 623 33,000  Level FlightAware
02:06AM 48.3520 -54.8690 76° East 543 625 33,000  Level FlightAware
02:07AM 48.3880 -54.6450 76° East 543 625 33,000  Level FlightAware
02:07AM 48.4070 -54.5260 76° East 543 625 33,000  Level FlightAware
02:08AM 48.4330 -54.3390 78° East 544 626 33,000  Level FlightAware
02:09AM 48.4580 -54.1730 77° East 545 627 33,000  Level FlightAware
02:09AM 48.4770 -54.0520 77° East 546 628 33,000  Level FlightAware
02:10AM 48.5090 -53.8340 77° East 547 629 33,000  Level FlightAware
02:11AM 48.5320 -53.6680 78° East 545 627 33,000  Level FlightAware
02:12AM 48.5520 -53.5310 78° East 544 626 33,000  Level FlightAware
02:12AM 48.5770 -53.3530 78° East 542 624 33,000  Level FlightAware
02:13AM 48.5970 -53.2130 78° East 540 621 33,000  Level FlightAware
02:14AM 48.6210 -53.0430 78° East 538 619 33,000  Level FlightAware
02:14AM 48.6420 -52.8890 78° East 535 616 33,000  Level FlightAware
02:15AM 48.6620 -52.7470 78° East 532 612 33,000  Level FlightAware
02:16AM 48.6830 -52.5910 78° East 529 609 33,000  Level FlightAware
02:17AM 48.7020 -52.4430 79° East 526 605 33,000  Level FlightAware
02:17AM 48.7200 -52.3130 78° East 524 603 33,000  Level FlightAware
02:18AM 48.7420 -52.1480 79° East 523 602 33,000  Level FlightAware
02:19AM 48.7630 -51.9810 79° East 520 598 33,000  Level FlightAware
02:19AM 48.7800 -51.8490 79° East 520 598 33,000  Level FlightAware
02:20AM 48.8060 -51.6440 79° East 520 598 33,000  Level FlightAware
02:21AM 48.8250 -51.4910 79° East 520 598 33,000  Level FlightAware
02:22AM 48.8440 -51.3400 79° East 521 600 33,000  Level FlightAware
02:23AM 48.8650 -51.1680 79° East 522 601 33,000  Level FlightAware
02:23AM 48.8840 -51.0210 79° East 522 601 33,000  Level FlightAware
02:24AM 48.8990 -50.9070 79° East 522 601 33,000  Level FlightAware
02:25AM 48.9130 -50.7970 79° East 522 601 33,000  Level FlightAware
02:25AM 48.9280 -50.6770 79° East 522 601 33,000  Level FlightAware
02:26AM 48.9470 -50.5300 79° East 522 601 33,000  Level FlightAware
02:27AM 48.9610 -50.4200 79° East 522 601 33,000  Level FlightAware
02:27AM 48.9750 -50.3090 79° East 522 601 33,000  Level FlightAware
02:28AM 48.9940 -50.1620 79° East 522 601 33,000  Level FlightAware
02:29AM 49.0080 -50.0480 79° East 522 601 33,000  Level FlightAware
02:29AM 49.0270 -49.9040 79° East 522 601 33,000  Level FlightAware
02:30AM 49.0410 -49.7900 79° East 522 601 33,000  Level FlightAware
02:31AM 49.0600 -49.6420 79° East 522 601 33,000  Level FlightAware
02:31AM 49.0740 -49.5290 79° East 522 601 33,000  Level FlightAware
02:32AM 49.0167 -48.9833 79° East 510 587 33,000  Level Gander Center
02:33AM 49.0333 -48.7500 84° East 510 587 33,000  Level Gander Center
02:34AM 49.0333 -48.5500 90° East 510 587 33,000  Level Gander Center
02:35AM 49.0500 -48.3333 83° East 510 587 33,000  Level Gander Center
02:36AM 49.0333 -48.1000 96° East 510 587 33,000  Level Gander Center
02:37AM 49.0500 -47.9000 83° East 510 587 33,000  Level Gander Center
02:38AM 49.0500 -47.6667 90° East 520 598 33,000  Level Gander Center
02:39AM 49.0667 -47.4500 83° East 510 587 33,000  Level Gander Center
02:40AM 49.0667 -47.2167 90° East 520 598 33,000  Level Gander Center
02:43AM 49.0816 -46.8057 87° East  Level FlightAware Approximate
02:50AM 49.1066 -45.2195 89° East  Level FlightAware Approximate
02:51AM 49.1069 -44.9928 90° East  Level FlightAware Approximate
02:52AM 49.1067 -44.7660 90° East  Level FlightAware Approximate
02:53AM 49.1061 -44.5393 90° East  Level FlightAware Approximate
02:54AM 49.1050 -44.3125 90° East  Level FlightAware Approximate
02:55AM 49.1035 -44.0858 90° East  Level FlightAware Approximate
02:56AM 49.1015 -43.8591 91° East  Level FlightAware Approximate
02:57AM 49.0991 -43.6325 91° East  Level FlightAware Approximate
02:58AM 49.0963 -43.4058 91° East  Level FlightAware Approximate
02:59AM 49.0930 -43.1792 91° East  Level FlightAware Approximate
03:00AM 49.0893 -42.9526 91° East  Level FlightAware Approximate
03:01AM 49.0851 -42.7260 92° East  Level FlightAware Approximate
03:02AM 49.0805 -42.4995 92° East  Level FlightAware Approximate
03:03AM 49.0754 -42.2730 92° East  Level FlightAware Approximate
03:04AM 49.0699 -42.0466 92° East  Level FlightAware Approximate
03:05AM 49.0640 -41.8202 92° East  Level FlightAware Approximate
03:06AM 49.0576 -41.5939 92° East  Level FlightAware Approximate
03:07AM 49.0508 -41.3676 93° East  Level FlightAware Approximate
03:08AM 49.0435 -41.1414 93° East  Level FlightAware Approximate
03:09AM 49.0358 -40.9153 93° East  Level FlightAware Approximate
03:10AM 49.0276 -40.6892 93° East  Level FlightAware Approximate
03:11AM 49.0190 -40.4632 93° East  Level FlightAware Approximate
03:12AM 49.0100 -40.2373 93° East  Level FlightAware Approximate
03:13AM 49.0005 -40.0115 94° East  Level FlightAware Approximate
03:14AM 49.0091 -39.7857 86° East  Level FlightAware Approximate
03:15AM 49.0182 -39.5598 86° East  Level FlightAware Approximate
03:16AM 49.0269 -39.3339 87° East  Level FlightAware Approximate
03:17AM 49.0352 -39.1078 87° East  Level FlightAware Approximate
03:18AM 49.0430 -38.8817 87° East  Level FlightAware Approximate
03:19AM 49.0504 -38.6555 87° East  Level FlightAware Approximate
03:20AM 49.0573 -38.4292 87° East  Level FlightAware Approximate
03:21AM 49.0638 -38.2029 87° East  Level FlightAware Approximate
03:22AM 49.0699 -37.9766 88° East  Level FlightAware Approximate
03:23AM 49.0755 -37.7501 88° East  Level FlightAware Approximate
03:24AM 49.0806 -37.5237 88° East  Level FlightAware Approximate
03:25AM 49.0852 -37.3026 88° East  Level FlightAware Approximate
03:26AM 49.0894 -37.0815 88° East  Level FlightAware Approximate
03:27AM 49.0932 -36.8604 88° East  Level FlightAware Approximate
03:28AM 49.0965 -36.6393 89° East  Level FlightAware Approximate
03:29AM 49.0994 -36.4181 89° East  Level FlightAware Approximate
03:30AM 49.1020 -36.1968 89° East  Level FlightAware Approximate
03:31AM 49.1040 -35.9756 89° East  Level FlightAware Approximate
03:32AM 49.1057 -35.7544 89° East  Level FlightAware Approximate
03:33AM 49.1069 -35.5331 89° East  Level FlightAware Approximate
03:34AM 49.1077 -35.3118 90° East  Level FlightAware Approximate
03:35AM 49.1081 -35.0906 90° East  Level FlightAware Approximate
03:36AM 49.1081 -34.8693 90° East  Level FlightAware Approximate
03:37AM 49.1076 -34.6480 90° East  Level FlightAware Approximate
03:38AM 49.1067 -34.4267 90° East  Level FlightAware Approximate
03:39AM 49.1054 -34.2055 90° East  Level FlightAware Approximate
03:40AM 49.1037 -33.9842 91° East  Level FlightAware Approximate
03:41AM 49.1015 -33.7630 91° East  Level FlightAware Approximate
03:42AM 49.0989 -33.5418 91° East  Level FlightAware Approximate
03:43AM 49.0960 -33.3206 91° East  Level FlightAware Approximate
03:44AM 49.0925 -33.0994 91° East  Level FlightAware Approximate
03:45AM 49.0887 -32.8783 91° East  Level FlightAware Approximate
03:46AM 49.0844 -32.6572 92° East  Level FlightAware Approximate
03:47AM 49.0797 -32.4362 92° East  Level FlightAware Approximate
03:48AM 49.0746 -32.2152 92° East  Level FlightAware Approximate
03:49AM 49.0691 -31.9942 92° East  Level FlightAware Approximate
03:50AM 49.0631 -31.7733 92° East  Level FlightAware Approximate
03:51AM 49.0568 -31.5525 92° East  Level FlightAware Approximate
03:52AM 49.0500 -31.3317 93° East  Level FlightAware Approximate
03:53AM 49.0428 -31.1110 93° East  Level FlightAware Approximate
03:54AM 49.0351 -30.8903 93° East  Level FlightAware Approximate
03:55AM 49.0271 -30.6697 93° East  Level FlightAware Approximate
03:56AM 49.0186 -30.4492 93° East  Level FlightAware Approximate
03:57AM 49.0097 -30.2288 93° East  Level FlightAware Approximate
03:58AM 49.0004 -30.0084 94° East  Level FlightAware Approximate
03:59AM 49.0301 -29.7926 77° East  Level FlightAware Approximate
04:00AM 49.0609 -29.5766 78° East  Level FlightAware Approximate
04:01AM 49.0914 -29.3604 78° East  Level FlightAware Approximate
04:02AM 49.1214 -29.1440 78° East  Level FlightAware Approximate
04:03AM 49.1511 -28.9273 78° East  Level FlightAware Approximate
04:04AM 49.1803 -28.7103 78° East  Level FlightAware Approximate
04:05AM 49.2091 -28.4931 78° East  Level FlightAware Approximate
04:05AM 49.0000 -30.0000 77° East 562 647 33,000  Level ETMS Enhanced Traffic Management System
04:06AM 49.2376 -28.2756 79° East  Level FlightAware Approximate
04:07AM 49.2656 -28.0578 79° East  Level FlightAware Approximate
04:08AM 49.2932 -27.8399 79° East  Level FlightAware Approximate
04:09AM 49.3204 -27.6217 79° East  Level FlightAware Approximate
04:10AM 49.3472 -27.4032 79° East  Level FlightAware Approximate
04:11AM 49.4558 -26.4774 80° East 562 647 33,000  Level FlightAware Transoceanic
04:12AM 49.4824 -26.2403 80° East 562 647 33,000  Level FlightAware Transoceanic
04:13AM 49.5084 -26.0030 80° East 562 647 33,000  Level FlightAware Transoceanic
04:14AM 49.5340 -25.7654 81° East 562 647 33,000  Level FlightAware Transoceanic
04:15AM 49.5591 -25.5276 81° East 562 647 33,000  Level FlightAware Transoceanic
04:16AM 49.5837 -25.2895 81° East 562 647 33,000  Level FlightAware Transoceanic
04:17AM 49.6078 -25.0512 81° East 562 647 33,000  Level FlightAware Transoceanic
04:18AM 49.6315 -24.8127 81° East 562 647 33,000  Level FlightAware Transoceanic
04:19AM 49.6546 -24.5739 82° East 562 647 33,000  Level FlightAware Transoceanic
04:20AM 49.6772 -24.3349 82° East 562 647 33,000  Level FlightAware Transoceanic
04:21AM 49.6994 -24.0957 82° East 562 647 33,000  Level FlightAware Transoceanic
04:22AM 49.7211 -23.8563 82° East 562 647 33,000  Level FlightAware Transoceanic
04:23AM 49.7422 -23.6167 82° East 562 647 33,000  Level FlightAware Transoceanic
04:24AM 49.7629 -23.3768 82° East 562 647 33,000  Level FlightAware Transoceanic
04:25AM 49.7831 -23.1368 83° East 562 647 33,000  Level FlightAware Transoceanic
04:26AM 49.8028 -22.8966 83° East 562 647 33,000  Level FlightAware Transoceanic
04:27AM 49.8220 -22.6561 83° East 562 647 33,000  Level FlightAware Transoceanic
04:28AM 49.8406 -22.4155 83° East 562 647 33,000  Level FlightAware Transoceanic
04:29AM 49.8588 -22.1747 83° East 562 647 33,000  Level FlightAware Transoceanic
04:30AM 49.8765 -21.9337 84° East 562 647 33,000  Level FlightAware Transoceanic
04:31AM 49.8937 -21.6926 84° East 562 647 33,000  Level FlightAware Transoceanic
04:32AM 49.9104 -21.4512 84° East 562 647 33,000  Level FlightAware Transoceanic
04:33AM 49.9266 -21.2097 84° East 562 647 33,000  Level FlightAware Transoceanic
04:34AM 49.9423 -20.9681 84° East 562 647 33,000  Level FlightAware Transoceanic
04:35AM 49.9575 -20.7263 85° East 562 647 33,000  Level FlightAware Transoceanic
04:36AM 49.9721 -20.4843 85° East 562 647 33,000  Level FlightAware Transoceanic
04:37AM 49.9863 -20.2422 85° East 562 647 33,000  Level FlightAware Transoceanic
04:38AM 49.9990 -20.0178 85° East  Level FlightAware Approximate
04:39AM 50.0113 -19.7932 85° East  Level FlightAware Approximate
04:40AM 49.9938 -19.8110 93° East  Level FlightAware Approximate
04:41AM 49.9860 -19.5864 93° East  Level FlightAware Approximate
04:42AM 49.9778 -19.3619 93° East  Level FlightAware Approximate
04:43AM 49.9692 -19.1375 93° East  Level FlightAware Approximate
04:44AM 49.9601 -18.9131 94° East  Level FlightAware Approximate
04:45AM 49.9506 -18.6888 94° East  Level FlightAware Approximate
04:46AM 49.9407 -18.4647 94° East  Level FlightAware Approximate
04:47AM 49.9303 -18.2406 94° East  Level FlightAware Approximate
04:48AM 49.9195 -18.0166 94° East  Level FlightAware Approximate
04:49AM 49.9083 -17.7927 94° East  Level FlightAware Approximate
04:50AM 49.8966 -17.5690 95° East  Level FlightAware Approximate
04:51AM 49.8845 -17.3453 95° East  Level FlightAware Approximate
04:52AM 49.8720 -17.1217 95° East  Level FlightAware Approximate
04:53AM 49.8591 -16.8983 95° East  Level FlightAware Approximate
04:54AM 49.8457 -16.6750 95° East  Level FlightAware Approximate
04:55AM 49.8319 -16.4518 95° East  Level FlightAware Approximate
04:56AM 49.8176 -16.2288 96° East  Level FlightAware Approximate
04:57AM 49.8030 -16.0058 96° East  Level FlightAware Approximate
04:58AM 49.7879 -15.7830 96° East  Level FlightAware Approximate
04:59AM 49.7724 -15.5604 96° East  Level FlightAware Approximate
05:00AM 49.7565 -15.3387 96° East  Level FlightAware Approximate
05:01AM 49.7402 -15.1171 96° East  Level FlightAware Approximate
05:02AM 49.7234 -14.8953 97° East  Level FlightAware Approximate
05:03AM 49.7062 -14.6736 97° East  Level FlightAware Approximate
05:04AM 49.6886 -14.4521 97° East  Level FlightAware Approximate
05:05AM 49.6706 -14.2308 97° East  Level FlightAware Approximate
05:06AM 49.6521 -14.0096 97° East  Level FlightAware Approximate
05:07AM 49.6333 -13.7886 97° East  Level FlightAware Approximate
05:08AM 49.6140 -13.5678 98° East  Level FlightAware Approximate
05:09AM 49.5943 -13.3471 98° East  Level FlightAware Approximate
05:10AM 49.5741 -13.1267 98° East  Level FlightAware Approximate
05:11AM 49.5536 -12.9064 98° East  Level FlightAware Approximate
05:12AM 49.5326 -12.6863 98° East  Level FlightAware Approximate
05:13AM 49.5112 -12.4664 98° East  Level FlightAware Approximate
05:14AM 49.4894 -12.2466 99° East  Level FlightAware Approximate
05:15AM 49.4672 -12.0271 99° East  Level FlightAware Approximate
05:16AM 49.4446 -11.8078 99° East  Level FlightAware Approximate
05:17AM 49.4215 -11.5887 99° East  Level FlightAware Approximate
05:18AM 49.3981 -11.3698 99° East  Level FlightAware Approximate
05:19AM 49.3742 -11.1511 99° East  Level FlightAware Approximate
05:20AM 49.3499 -10.9326 99° East  Level FlightAware Approximate
05:21AM 49.3266 -10.7140 99° East  Level FlightAware Approximate
05:22AM 49.3028 -10.4956 99° East  Level FlightAware Approximate
05:22AM 49.4010 -10.0390 100° East 517 595 35,000  Level FlightAware
05:23AM 49.2786 -10.2774 100° East  Level FlightAware Approximate
05:23AM 49.3680 -9.8280 103° East 517 595 35,000  Level FlightAware
05:23AM 49.3520 -9.7190 103° East 517 595 35,000  Level FlightAware
05:24AM 49.3150 -9.4910 104° East 518 596 35,000  Level FlightAware
05:25AM 49.2920 -9.3470 104° East 519 597 35,000  Level FlightAware
05:26AM 49.2680 -9.1970 104° East 520 598 35,000  Level FlightAware
05:26AM 49.2380 -9.0160 104° East 521 600 35,000  Level FlightAware
05:27AM 49.2166 -8.8771 104° East 500 575 35,000  Level FlightAware UK
05:27AM 49.2030 -8.8050 104° East 521 600 35,000  Level FlightAware
05:28AM 49.1805 -8.6628 104° East 498 573 35,000  Level FlightAware UK
05:28AM 49.1780 -8.6520 104° East 520 598 35,000  Level FlightAware
05:29AM 49.1500 -8.4860 104° East 520 598 35,000  Level FlightAware
05:29AM 49.1270 -8.3540 104° East 520 598 35,000  Level FlightAware
05:29AM 49.1249 -8.3420 104° East 498 573 35,000  Level FlightAware UK
05:30AM 49.1061 -8.2351 104° East 498 573 35,000  Level FlightAware UK
05:30AM 49.1000 -8.1980 104° East 520 598 35,000  Level FlightAware
05:31AM 49.0730 -8.0390 104° East 521 600 35,000  Level FlightAware
05:31AM 49.0512 -7.9158 104° East 496 571 35,000  Level FlightAware UK
05:32AM 49.0470 -7.8900 104° East 521 600 35,000  Level FlightAware
05:32AM 49.0270 -7.7800 105° East 521 600 35,000  Level FlightAware
05:33AM 49.0020 -7.6350 105° East 522 601 35,000  Level FlightAware
05:33AM 48.9766 -7.4911 105° East 498 573 35,000  Level FlightAware UK
05:34AM 48.9740 -7.4780 105° East 524 603 35,000  Level FlightAware
05:34AM 48.9450 -7.3540 110° East 522 601 35,000  Level FlightAware
05:35AM 48.9070 -7.2110 112° Southeast 522 601 35,000  Level FlightAware
05:35AM 48.8708 -7.0814 112° Southeast 496 571 35,000  Level FlightAware UK
05:35AM 48.8700 -7.0800 112° Southeast 523 602 35,000  Level FlightAware
05:36AM 48.8260 -6.9240 113° Southeast 524 603 35,000  Level FlightAware
05:37AM 48.7880 -6.7890 113° Southeast 525 604 35,000  Level FlightAware
05:37AM 48.7580 -6.6840 113° Southeast 525 604 35,000  Level FlightAware
05:38AM 48.7210 -6.5532 113° Southeast 496 571 35,000  Level FlightAware UK
05:38AM 48.7180 -6.5430 113° Southeast 527 606 35,000  Level FlightAware
05:39AM 48.6790 -6.4070 113° Southeast 528 608 35,000  Level FlightAware
05:39AM 48.6480 -6.2990 113° Southeast 528 608 35,000  Level FlightAware
05:40AM 48.6050 -6.1530 113° Southeast 530 610 35,000  Level FlightAware
05:40AM 48.6045 -6.1475 113° Southeast 496 571 35,000  Level FlightAware UK
05:41AM 48.5747 -6.0456 113° Southeast 496 571 35,000  Level FlightAware UK
05:41AM 48.5630 -6.0070 113° Southeast 531 611 35,000  Level FlightAware
05:41AM 48.5340 -5.9090 114° Southeast 531 611 35,000  Level FlightAware
05:42AM 48.4851 -5.7401 114° Southeast 496 571 35,000  Level FlightAware UK
05:42AM 48.4840 -5.7400 114° Southeast 533 613 35,000  Level FlightAware
05:43AM 48.4450 -5.6040 113° Southeast 534 615 35,000  Level FlightAware
05:43AM 48.4020 -5.4580 114° Southeast 534 615 35,000  Level FlightAware
05:44AM 48.3640 -5.3333 114° Southeast 498 573 35,000  Level FlightAware UK
05:44AM 48.3590 -5.3160 114° Southeast 534 615 35,000  Level FlightAware
05:45AM 48.3275 -5.2115 114° Southeast 496 571 35,000  Level FlightAware UK
05:45AM 48.3180 -5.1810 114° Southeast 535 616 35,000  Level FlightAware
05:45AM 48.2780 -5.0490 114° Southeast 535 616 35,000  Level FlightAware
05:46AM 48.2380 -4.9180 115° Southeast 536 617 35,000  Level FlightAware
05:47AM 48.1930 -4.7690 114° Southeast 535 616 35,000  Level FlightAware
05:47AM 48.1540 -4.6450 115° Southeast 536 617 35,000  Level FlightAware
05:48AM 48.1150 -4.5170 114° Southeast 536 617 35,000  Level FlightAware
05:49AM 48.0720 -4.3790 115° Southeast 537 618 35,000  Level FlightAware
05:49AM 48.0280 -4.2380 115° Southeast 537 618 35,000  Level FlightAware
05:50AM 47.9840 -4.0970 115° Southeast 539 620 35,000  Level FlightAware
05:51AM 47.9350 -3.9420 115° Southeast 539 620 35,000  Level FlightAware
05:52AM 47.8890 -3.8020 116° Southeast 539 620 35,000  Level FlightAware
05:52AM 47.8460 -3.6640 115° Southeast 540 621 35,000  Level FlightAware
05:53AM 47.8060 -3.5400 116° Southeast 540 621 35,000  Level FlightAware
05:53AM 47.7710 -3.4300 115° Southeast 540 621 35,000  Level FlightAware
05:54AM 47.7170 -3.2660 116° Southeast 540 621 35,000  Level FlightAware
05:55AM 47.6770 -3.1480 117° Southeast 539 620 35,000  Level FlightAware
05:56AM 47.6300 -3.0170 118° Southeast 539 620 35,000  Level FlightAware
05:56AM 47.5840 -2.8860 117° Southeast 539 620 35,000  Level FlightAware
05:57AM 47.5380 -2.7550 117° Southeast 538 619 35,000  Level FlightAware
05:58AM 47.4840 -2.6020 118° Southeast 539 620 35,000  Level FlightAware
05:58AM 47.4390 -2.4780 118° Southeast 538 619 35,000  Level FlightAware
05:59AM 47.3940 -2.3520 118° Southeast 539 620 35,000  Level FlightAware
06:00AM 47.3410 -2.2020 117° Southeast 539 620 35,000  Level FlightAware
06:00AM 47.2980 -2.0830 118° Southeast 540 621 35,000  Level FlightAware
06:01AM 47.2510 -1.9530 118° Southeast 540 621 35,000  Level FlightAware
06:02AM 47.2170 -1.8620 119° Southeast 541 623 35,000  Level FlightAware
06:02AM 47.1780 -1.7550 118° Southeast 541 623 35,000  Level FlightAware
06:03AM 47.1110 -1.5740 118° Southeast 542 624 35,000  Level FlightAware
06:04AM 47.0580 -1.4320 119° Southeast 544 626 35,000  Level FlightAware
06:04AM 47.0120 -1.3060 118° Southeast 544 626 35,000  Level FlightAware
06:05AM 46.9640 -1.1770 119° Southeast 543 625 35,000  Level FlightAware
06:06AM 46.9120 -1.0420 119° Southeast 544 626 35,000  Level FlightAware
06:06AM 46.8640 -0.9130 119° Southeast 544 626 35,000  Level FlightAware
06:07AM 46.8140 -0.7810 119° Southeast 544 626 35,000  Level FlightAware
06:08AM 46.7580 -0.6340 119° Southeast 544 626 35,000  Level FlightAware
06:09AM 46.7130 -0.5190 120° Southeast 543 625 35,000  Level FlightAware
06:09AM 46.6480 -0.3500 119° Southeast 542 624 35,000  Level FlightAware
06:10AM 46.5990 -0.2230 119° Southeast 542 624 35,000  Level FlightAware
06:11AM 46.5230 -0.0270 119° Southeast 543 625 35,000  Level FlightAware
06:12AM 46.4410 0.1830 119° Southeast 544 626 35,000  Level FlightAware
06:13AM 46.3920 0.3100 119° Southeast 546 628 35,000  Level FlightAware
06:14AM 46.3400 0.4400 120° Southeast 541 623 35,000  Level FlightAware
06:14AM 46.2950 0.5530 120° Southeast 545 627 35,000  Level FlightAware
06:15AM 46.2390 0.6950 120° Southeast 546 628 35,000  Level FlightAware
06:16AM 46.1600 0.8900 120° Southeast 547 629 35,000  Level FlightAware
06:17AM 46.1020 1.0350 120° Southeast 547 629 35,000  Level FlightAware
06:18AM 46.0270 1.2140 121° Southeast 549 632 35,000  Level FlightAware
06:19AM 45.9490 1.4050 120° Southeast 548 631 35,000  Level FlightAware
06:19AM 45.9040 1.5420 115° Southeast 540 621 35,000  Level FlightAware
06:20AM 45.8720 1.6540 112° Southeast 541 623 35,000  Level FlightAware
06:21AM 45.8420 1.7640 111° Southeast 540 621 35,000  Level FlightAware
06:21AM 45.7930 1.9360 112° Southeast 539 620 35,000  Level FlightAware
06:22AM 45.7560 2.0610 113° Southeast 540 621 35,000  Level FlightAware
06:23AM 45.7160 2.1920 114° Southeast 542 624 35,000  Level FlightAware
06:23AM 45.6710 2.3200 117° Southeast 542 624 35,000  Level FlightAware
06:24AM 45.6360 2.4230 116° Southeast 542 624 35,000  Level FlightAware
06:24AM 45.5900 2.5580 116° Southeast 542 624 35,000  Level FlightAware
06:25AM 45.5490 2.6730 117° Southeast 541 623 35,000  Level FlightAware
06:26AM 45.5000 2.8180 116° Southeast 542 624 35,000  Level FlightAware
06:27AM 45.4520 2.9590 116° Southeast 543 625 35,000  Level FlightAware
06:27AM 45.4160 3.0610 117° Southeast 543 625 35,000  Level FlightAware
06:28AM 45.3720 3.1890 116° Southeast 542 624 35,000  Level FlightAware
06:29AM 45.3230 3.3290 116° Southeast 541 623 35,000  Level FlightAware
06:29AM 45.2640 3.4980 116° Southeast 543 625 35,000  Level FlightAware
06:30AM 45.2190 3.6220 117° Southeast 543 625 35,000  Level FlightAware
06:31AM 45.1710 3.7620 116° Southeast 546 628 35,000  Level FlightAware
06:31AM 45.1230 3.8890 118° Southeast 551 634 35,000  Level FlightAware
06:32AM 45.0690 4.0160 121° Southeast 551 634 35,000  Level FlightAware
06:33AM 45.0150 4.1420 121° Southeast 549 632 35,000  Level FlightAware
06:34AM 44.9540 4.2870 121° Southeast 550 633 35,000  Level FlightAware
06:34AM 44.9130 4.3820 121° Southeast 551 634 35,000  Level FlightAware
06:35AM 44.8560 4.5180 121° Southeast 551 634 35,000  Level FlightAware
06:36AM 44.8010 4.6480 121° Southeast 550 633 35,000  Level FlightAware
06:36AM 44.7480 4.7730 121° Southeast 549 632 35,000  Level FlightAware
06:37AM 44.6910 4.9080 121° Southeast 550 633 35,000  Level FlightAware
06:38AM 44.6340 5.0310 123° Southeast 552 635 35,000  Level FlightAware
06:38AM 44.5780 5.1550 122° Southeast 552 635 35,000  Level FlightAware
06:39AM 44.5210 5.2770 123° Southeast 552 635 35,000  Level FlightAware
06:40AM 44.4640 5.4000 123° Southeast 552 635 35,000  Level FlightAware
06:40AM 44.4030 5.5290 123° Southeast 552 635 35,000  Level FlightAware
06:41AM 44.3650 5.6090 124° Southeast 552 635 35,000  Level FlightAware
06:42AM 44.3030 5.7430 123° Southeast 551 634 35,000  Level FlightAware
06:42AM 44.2430 5.8710 123° Southeast 550 633 35,000  Level FlightAware
06:43AM 44.1960 5.9690 124° Southeast 550 633 35,000  Level FlightAware
06:44AM 44.1360 6.0960 123° Southeast 549 632 35,000  Level FlightAware
06:44AM 44.0780 6.2160 124° Southeast 549 632 35,000  Level FlightAware
06:45AM 44.0250 6.3270 124° Southeast 548 631 35,000  Level FlightAware
06:45AM 43.9790 6.4240 123° Southeast 546 628 35,000  Level FlightAware
06:46AM 43.9210 6.5430 124° Southeast 543 625 35,000  Level FlightAware
06:47AM 43.8620 6.6640 124° Southeast 541 623 35,000  Level FlightAware
06:48AM 43.8040 6.7870 123° Southeast 538 619 35,000  Level FlightAware
06:48AM 43.7550 6.8870 124° Southeast 538 619 35,000  Level FlightAware
06:49AM 43.6840 7.0150 127° Southeast 538 619 35,000  Level FlightAware
06:49AM 43.6430 7.0800 131° Southeast 538 619 35,000  Level FlightAware
06:50AM 43.5770 7.1840 131° Southeast 537 618 35,000  Level FlightAware
06:51AM 43.5160 7.2820 131° Southeast 537 618 35,000  Level FlightAware
06:51AM 43.4610 7.3700 131° Southeast 538 619 35,000  Level FlightAware
06:52AM 43.3850 7.4920 131° Southeast 537 618 35,000  Level FlightAware
06:53AM 43.3200 7.5960 131° Southeast 535 616 35,000 420 Level FlightAware
06:53AM 43.2650 7.7190 122° Southeast 530 610 35,600 1,080 Climbing FlightAware
06:54AM 43.2270 7.8170 118° Southeast 524 603 36,400 1,200 Climbing FlightAware
06:55AM 43.1850 7.9280 117° Southeast 523 602 37,000 420 Climbing FlightAware
06:55AM 43.1380 8.0480 118° Southeast 522 601 37,000  Level FlightAware
06:56AM 43.0850 8.1850 118° Southeast 523 602 37,000  Level FlightAware
06:57AM 43.0400 8.3020 118° Southeast 523 602 37,000  Level FlightAware
06:57AM 42.9880 8.4360 118° Southeast 522 601 37,000  Level FlightAware
06:58AM 42.9440 8.5490 118° Southeast 522 601 37,000  Level FlightAware
06:59AM 42.8910 8.6800 119° Southeast 520 598 37,000  Level FlightAware
07:00AM 42.8480 8.7920 118° Southeast 520 598 37,000  Level FlightAware
07:00AM 42.8040 8.9020 119° Southeast 517 595 37,000  Level FlightAware
07:01AM 42.7540 9.0280 118° Southeast 515 593 37,000  Level FlightAware
07:01AM 42.7170 9.1200 119° Southeast 516 594 37,000  Level FlightAware
07:02AM 42.6700 9.2340 119° Southeast 515 593 37,000  Level FlightAware
07:03AM 42.6240 9.3480 119° Southeast 515 593 37,000  Level FlightAware
07:04AM 42.5760 9.4760 117° Southeast 519 597 37,000  Level FlightAware
07:04AM 42.5410 9.6000 111° Southeast 516 594 37,000  Level FlightAware
07:05AM 42.5040 9.7410 110° East 517 595 37,000  Level FlightAware
07:06AM 42.4740 9.8560 109° East 518 596 37,000  Level FlightAware
07:06AM 42.4410 9.9780 110° East 515 593 37,000  Level FlightAware
07:07AM 42.4040 10.1140 110° East 514 592 37,000  Level FlightAware
07:08AM 42.3660 10.2520 110° East 513 590 37,000  Level FlightAware
07:08AM 42.3320 10.3790 110° East 513 590 37,000  Level FlightAware
07:09AM 42.2980 10.5020 110° East 515 593 37,000  Level FlightAware
07:10AM 42.2530 10.6080 120° Southeast 513 590 37,000  Level FlightAware
07:10AM 42.2020 10.7110 124° Southeast 513 590 37,000  Level FlightAware
07:11AM 42.1130 10.8740 126° Southeast 513 590 37,000  Level FlightAware
07:12AM 42.0300 11.0210 127° Southeast 512 589 37,000  Level FlightAware
07:13AM 41.9680 11.1330 127° Southeast 512 589 37,000  Level FlightAware
07:14AM 41.9100 11.2370 127° Southeast 512 589 37,000  Level FlightAware
07:14AM 41.8590 11.3290 127° Southeast 512 589 37,000  Level FlightAware
07:15AM 41.7880 11.4550 127° Southeast 510 587 37,000  Level FlightAware
07:16AM 41.7310 11.5530 128° Southeast 509 586 37,000  Level FlightAware
07:17AM 41.6710 11.6600 127° Southeast 507 583 37,000  Level FlightAware
07:17AM 41.6090 11.7670 128° Southeast 507 583 37,000  Level FlightAware
07:18AM 41.5480 11.8740 127° Southeast 508 585 37,000  Level FlightAware
07:19AM 41.4990 11.9560 129° Southeast 509 586 37,000  Level FlightAware
07:19AM 41.4380 12.0630 127° Southeast 510 587 37,000  Level FlightAware
07:20AM 41.3750 12.1720 128° Southeast 511 588 37,000  Level FlightAware
07:21AM 41.3180 12.2690 128° Southeast 512 589 37,000  Level FlightAware
07:21AM 41.2840 12.3380 123° Southeast 512 589 37,000  Level FlightAware
07:22AM 41.2330 12.4550 120° Southeast 513 590 37,000  Level FlightAware
07:23AM 41.1800 12.5740 121° Southeast 514 592 37,000  Level FlightAware
07:23AM 41.1500 12.6460 119° Southeast 516 594 37,000  Level FlightAware
07:24AM 41.0980 12.7680 119° Southeast 516 594 37,000  Level FlightAware
07:24AM 41.0600 12.8580 119° Southeast 515 593 37,000  Level FlightAware
07:25AM 41.0240 12.9400 120° Southeast 515 593 37,000  Level FlightAware
07:25AM 40.9770 13.0470 120° Southeast 513 590 37,000  Level FlightAware
07:26AM 40.9440 13.1250 119° Southeast 512 589 37,000  Level FlightAware
07:27AM 40.9010 13.2230 120° Southeast 511 588 37,000  Level FlightAware
07:27AM 40.8450 13.3500 120° Southeast 510 587 37,000  Level FlightAware
07:28AM 40.7930 13.4680 120° Southeast 509 586 37,000  Level FlightAware
07:29AM 40.7460 13.5750 120° Southeast 508 585 37,000  Level FlightAware
07:29AM 40.6990 13.6830 120° Southeast 508 585 37,000  Level FlightAware
07:30AM 40.6450 13.8030 121° Southeast 509 586 37,000  Level FlightAware
07:31AM 40.6120 13.8770 120° Southeast 509 586 37,000  Level FlightAware
07:31AM 40.5600 13.9950 120° Southeast 510 587 37,000  Level FlightAware
07:32AM 40.5210 14.0800 121° Southeast 511 588 37,000  Level FlightAware
07:33AM 40.4740 14.1870 120° Southeast 511 588 37,000  Level FlightAware
07:33AM 40.4310 14.2810 121° Southeast 512 589 37,000  Level FlightAware
07:34AM 40.3790 14.3960 121° Southeast 513 590 37,000  Level FlightAware
07:35AM 40.3310 14.5030 120° Southeast 515 593 37,000  Level FlightAware
07:35AM 40.2740 14.6260 121° Southeast 514 592 37,000  Level FlightAware
07:36AM 40.2240 14.7360 121° Southeast 513 590 37,000  Level FlightAware
07:37AM 40.1720 14.8390 123° Southeast 513 590 37,000  Level FlightAware
07:37AM 40.1130 14.9550 124° Southeast 515 593 37,000  Level FlightAware
07:38AM 40.0590 15.0590 124° Southeast 516 594 37,000  Level FlightAware
07:39AM 40.0100 15.1540 124° Southeast 518 596 37,000  Level FlightAware
07:39AM 39.9540 15.2640 124° Southeast 518 596 37,000  Level FlightAware
07:40AM 39.9010 15.3680 124° Southeast 520 598 37,000  Level FlightAware
07:41AM 39.8680 15.4510 117° Southeast 523 602 37,000  Level FlightAware
07:41AM 39.8330 15.5480 115° Southeast 525 604 37,000  Level FlightAware
07:42AM 39.8010 15.6440 113° Southeast 529 609 37,000  Level FlightAware
07:42AM 39.7760 15.7270 111° Southeast 530 610 37,000  Level FlightAware
07:43AM 39.7360 15.8540 112° Southeast 533 613 37,000  Level FlightAware
07:43AM 39.7080 15.9400 113° Southeast 537 618 37,000  Level FlightAware
07:44AM 39.6740 16.0470 112° Southeast 540 621 37,000  Level FlightAware
07:45AM 39.6070 16.2480 113° Southeast 547 629 37,000  Level FlightAware
07:46AM 39.5680 16.3690 113° Southeast 549 632 37,000  Level FlightAware
07:46AM 39.5300 16.4850 113° Southeast 552 635 37,000  Level FlightAware
07:47AM 39.4880 16.6120 113° Southeast 554 638 37,000  Level FlightAware
07:48AM 39.4490 16.7310 113° Southeast 554 638 37,000  Level FlightAware
07:48AM 39.4200 16.8190 113° Southeast 554 638 37,000  Level FlightAware
07:49AM 39.3820 16.9290 114° Southeast 556 640 37,000  Level FlightAware
07:50AM 39.3330 17.0760 113° Southeast 558 642 37,000  Level FlightAware
07:51AM 39.2890 17.2080 113° Southeast 562 647 37,000  Level FlightAware
07:51AM 39.2480 17.3310 113° Southeast 563 648 37,000  Level FlightAware
07:52AM 39.2140 17.4320 113° Southeast 564 649 37,000  Level FlightAware
07:52AM 39.1690 17.5620 114° Southeast 566 651 37,000  Level FlightAware
07:53AM 39.1270 17.6850 114° Southeast 567 652 37,000  Level FlightAware
07:54AM 39.0900 17.7930 114° Southeast 567 652 37,000  Level FlightAware
07:54AM 39.0480 17.9170 114° Southeast 567 652 37,000  Level FlightAware
07:55AM 39.0050 18.0400 114° Southeast 566 651 37,000  Level FlightAware
07:56AM 38.9590 18.1720 114° Southeast 566 651 37,000  Level FlightAware
07:56AM 38.9250 18.2700 114° Southeast 565 650 37,000  Level FlightAware
07:57AM 38.8650 18.4400 114° Southeast 562 647 37,000  Level FlightAware
07:58AM 38.8220 18.5610 114° Southeast 559 643 37,000  Level FlightAware
07:58AM 38.7880 18.6570 114° Southeast 557 641 37,000  Level FlightAware
07:59AM 38.7460 18.7740 115° Southeast 554 638 37,000  Level FlightAware
08:00AM 38.7030 18.8960 114° Southeast 553 636 37,000  Level FlightAware
08:00AM 38.6610 19.0150 114° Southeast 552 635 37,000  Level FlightAware
08:01AM 38.6170 19.1370 115° Southeast 552 635 37,000  Level FlightAware
08:02AM 38.5630 19.2880 115° Southeast 553 636 37,000  Level FlightAware
08:03AM 38.5100 19.4330 115° Southeast 554 638 37,000  Level FlightAware
08:03AM 38.4670 19.5510 115° Southeast 553 636 37,000  Level FlightAware
08:04AM 38.4180 19.6840 115° Southeast 553 636 37,000  Level FlightAware
08:05AM 38.3690 19.8160 115° Southeast 554 638 37,000  Level FlightAware
08:05AM 38.3330 19.9130 115° Southeast 553 636 37,000  Level FlightAware
08:06AM 38.2830 20.0520 115° Southeast 555 639 37,000  Level FlightAware
08:07AM 38.2340 20.1810 116° Southeast 555 639 37,000  Level FlightAware
08:08AM 38.1500 20.4040 116° Southeast 552 635 37,000  Level FlightAware
08:09AM 38.1030 20.5320 115° Southeast 550 633 37,000  Level FlightAware
08:10AM 38.0520 20.6660 116° Southeast 550 633 37,000  Level FlightAware
08:10AM 38.0080 20.7820 116° Southeast 549 632 37,000  Level FlightAware
08:11AM 37.9640 20.8970 116° Southeast 549 632 37,000  Level FlightAware
08:12AM 37.9040 21.0560 116° Southeast 549 632 37,000  Level FlightAware
08:13AM 37.8540 21.1860 116° Southeast 551 634 37,000  Level FlightAware
08:13AM 37.8210 21.2730 116° Southeast 551 634 37,000  Level FlightAware
08:14AM 37.7760 21.3890 116° Southeast 552 635 37,000  Level FlightAware
08:14AM 37.7370 21.4900 116° Southeast 553 636 37,000  Level FlightAware
08:15AM 37.6920 21.6090 116° Southeast 551 634 37,000  Level FlightAware
08:15AM 37.6580 21.6930 117° Southeast 552 635 37,000  Level FlightAware
08:16AM 37.6040 21.8340 116° Southeast 552 635 37,000  Level FlightAware
08:17AM 37.5600 21.9430 117° Southeast 551 634 37,000  Level FlightAware
08:18AM 37.5090 22.0730 116° Southeast 550 633 37,000  Level FlightAware
08:18AM 37.4670 22.1790 117° Southeast 551 634 37,000  Level FlightAware
08:19AM 37.4150 22.3140 116° Southeast 552 635 37,000  Level FlightAware
08:20AM 37.3790 22.4240 112° Southeast 554 638 37,000  Level FlightAware
08:20AM 37.3420 22.5540 110° East 554 638 37,000  Level FlightAware
08:21AM 37.3030 22.6870 110° East 554 638 37,000  Level FlightAware
08:22AM 37.2760 22.7770 111° Southeast 553 636 37,000  Level FlightAware
08:22AM 37.2390 22.9040 110° East 554 638 37,000  Level FlightAware
08:23AM 37.2050 23.0180 110° East 554 638 37,000  Level FlightAware
08:24AM 37.1640 23.1570 110° East 554 638 37,000  Level FlightAware
08:24AM 37.1320 23.2650 110° East 555 639 37,000  Level FlightAware
08:25AM 37.1050 23.3550 111° Southeast 555 639 37,000  Level FlightAware
08:26AM 37.0650 23.4840 111° Southeast 554 638 37,000  Level FlightAware
08:26AM 37.0270 23.6140 110° East 554 638 37,000  Level FlightAware
08:27AM 36.9930 23.7240 111° Southeast 554 638 37,000  Level FlightAware
08:28AM 36.9510 23.8620 111° Southeast 555 639 37,000  Level FlightAware
08:28AM 36.9250 23.9460 111° Southeast 554 638 37,000  Level FlightAware
08:29AM 36.9000 24.0260 111° Southeast 554 638 37,000  Level FlightAware
08:29AM 36.8600 24.1580 111° Southeast 554 638 37,000  Level FlightAware
08:30AM 36.8410 24.2170 112° Southeast 554 638 37,000  Level FlightAware
08:30AM 36.8030 24.3430 111° Southeast 554 638 37,000  Level FlightAware
08:31AM 36.7750 24.4320 111° Southeast 554 638 37,000  Level FlightAware
08:32AM 36.7340 24.5620 111° Southeast 551 634 37,000  Level FlightAware
08:32AM 36.7110 24.6230 115° Southeast 549 632 37,000  Level FlightAware
08:33AM 36.6660 24.7460 114° Southeast 548 631 37,000  Level FlightAware
08:33AM 36.6240 24.8580 115° Southeast 546 628 37,000  Level FlightAware
08:34AM 36.5800 24.9780 115° Southeast 545 627 37,000  Level FlightAware
08:35AM 36.5420 25.0800 115° Southeast 543 625 37,000  Level FlightAware
08:35AM 36.5130 25.1600 114° Southeast 543 625 37,000  Level FlightAware
08:36AM 36.4690 25.2820 114° Southeast 545 627 37,000  Level FlightAware
08:36AM 36.4290 25.3870 115° Southeast 545 627 37,000  Level FlightAware
08:37AM 36.3780 25.5270 114° Southeast 545 627 37,000  Level FlightAware
08:38AM 36.3330 25.6460 115° Southeast 546 628 37,000  Level FlightAware
08:39AM 36.2920 25.7570 115° Southeast 548 631 37,000  Level FlightAware
08:39AM 36.2530 25.8620 115° Southeast 549 632 37,000  Level FlightAware
08:40AM 36.2090 25.9760 116° Southeast 549 632 37,000  Level FlightAware
08:40AM 36.1750 26.0640 116° Southeast 549 632 37,000  Level FlightAware
08:41AM 36.1380 26.1610 115° Southeast 548 631 37,000  Level FlightAware
08:42AM 36.0900 26.2890 115° Southeast 549 632 37,000  Level FlightAware
08:42AM 36.0490 26.3960 115° Southeast 549 632 37,000  Level FlightAware
08:43AM 36.0130 26.4900 115° Southeast 548 631 37,000  Level FlightAware
08:43AM 35.9730 26.5940 115° Southeast 547 629 37,000  Level FlightAware
08:44AM 35.9260 26.7150 116° Southeast 547 629 37,000  Level FlightAware
08:45AM 35.8790 26.8360 116° Southeast 546 628 37,000  Level FlightAware
08:46AM 35.8190 26.9900 116° Southeast 545 627 37,000  Level FlightAware
08:47AM 35.7770 27.1000 115° Southeast 546 628 37,000  Level FlightAware
08:47AM 35.7360 27.2000 117° Southeast 545 627 37,000  Level FlightAware
08:48AM 35.6820 27.3370 116° Southeast 545 627 37,000  Level FlightAware
08:49AM 35.6320 27.4620 116° Southeast 546 628 37,000  Level FlightAware
08:50AM 35.5790 27.5980 116° Southeast 546 628 37,000  Level FlightAware
08:51AM 35.5190 27.7470 116° Southeast 546 628 37,000  Level FlightAware
08:51AM 35.4950 27.8090 115° Southeast 546 628 37,000  Level FlightAware
08:52AM 35.4280 27.9740 116° Southeast 546 628 37,000  Level FlightAware
08:52AM 35.3850 28.0790 117° Southeast 546 628 37,000  Level FlightAware
08:53AM 35.3420 28.1870 116° Southeast 546 628 37,000  Level FlightAware
08:54AM 35.2890 28.3170 117° Southeast 546 628 37,000  Level FlightAware
08:54AM 35.2420 28.4300 117° Southeast 547 629 37,000  Level FlightAware
08:55AM 35.2100 28.5080 117° Southeast 547 629 37,000  Level FlightAware
08:56AM 35.1630 28.6240 116° Southeast 548 631 37,000  Level FlightAware
08:56AM 35.1160 28.7370 117° Southeast 547 629 37,000  Level FlightAware
08:57AM 35.0730 28.8420 117° Southeast 546 628 37,000  Level FlightAware
08:57AM 35.0340 28.9350 117° Southeast 546 628 37,000  Level FlightAware
08:58AM 34.9800 29.0640 117° Southeast 547 629 37,000  Level FlightAware
08:59AM 34.9400 29.1580 117° Southeast 547 629 37,000  Level FlightAware
09:00AM 34.8660 29.3360 117° Southeast 545 627 37,000  Level FlightAware
09:00AM 34.8300 29.4210 117° Southeast 544 626 37,000  Level FlightAware
09:01AM 34.7740 29.5550 117° Southeast 545 627 37,000  Level FlightAware
09:02AM 34.7440 29.6240 118° Southeast 544 626 37,000  Level FlightAware
09:02AM 34.6910 29.7470 118° Southeast 545 627 37,000  Level FlightAware
09:03AM 34.6500 29.8430 117° Southeast 547 629 37,000  Level FlightAware
09:04AM 34.6050 29.9380 120° Southeast 546 628 37,000  Level FlightAware
09:04AM 34.5520 30.0490 120° Southeast 547 629 37,000  Level FlightAware
09:05AM 34.4960 30.1630 121° Southeast 546 628 37,000  Level FlightAware
09:06AM 34.4450 30.2690 120° Southeast 547 629 37,000  Level FlightAware
09:06AM 34.3910 30.3830 120° Southeast 545 627 37,000  Level FlightAware
09:07AM 34.3440 30.4830 120° Southeast 546 628 37,000  Level FlightAware
09:08AM 34.2920 30.5920 120° Southeast 545 627 37,000  Level FlightAware
09:08AM 34.2480 30.6810 121° Southeast 544 626 37,000  Level FlightAware
09:09AM 34.1950 30.7910 120° Southeast 542 624 37,000  Level FlightAware
09:09AM 34.1690 30.8460 120° Southeast 542 624 37,000  Level FlightAware
09:10AM 34.1060 30.9740 121° Southeast 542 624 37,000  Level FlightAware
09:11AM 34.0490 31.0940 120° Southeast 540 621 37,000  Level FlightAware
09:11AM 34.0180 31.1560 121° Southeast 540 621 37,000  Level FlightAware
09:12AM 33.9600 31.2730 121° Southeast 539 620 37,000  Level FlightAware
09:13AM 33.9100 31.3760 120° Southeast 540 621 37,000  Level FlightAware
09:13AM 33.8600 31.4770 121° Southeast 539 620 37,000  Level FlightAware
09:14AM 33.8200 31.5570 121° Southeast 539 620 37,000  Level FlightAware
09:15AM 33.7690 31.6620 120° Southeast 539 620 37,000  Level FlightAware
09:15AM 33.7110 31.7780 121° Southeast 539 620 37,000  Level FlightAware
09:16AM 33.6590 31.8810 121° Southeast 539 620 37,000  Level FlightAware
09:17AM 33.6080 31.9830 121° Southeast 538 619 37,000  Level FlightAware
09:17AM 33.5640 32.0730 120° Southeast 538 619 37,000  Level FlightAware
09:18AM 33.5230 32.1540 121° Southeast 537 618 37,000  Level FlightAware
09:18AM 33.4710 32.2560 121° Southeast 536 617 37,000 -420 Level FlightAware
09:19AM 33.4260 32.3450 121° Southeast 532 612 36,500 -1,020 Descending FlightAware
09:20AM 33.3680 32.4580 122° Southeast 536 617 35,700 -840 Descending FlightAware
09:20AM 33.3280 32.5370 121° Southeast 535 616 35,400 -900 Descending FlightAware
09:21AM 33.2650 32.6630 121° Southeast 529 609 34,500 -1,380 Descending FlightAware
09:22AM 33.2180 32.7540 122° Southeast 516 594 33,400 -1,860 Descending FlightAware
09:22AM 33.1640 32.8600 121° Southeast 499 574 32,000 -1,620 Descending FlightAware
09:23AM 33.1010 32.9810 122° Southeast 489 563 31,000 -900 Descending FlightAware
09:24AM 33.0560 33.0690 121° Southeast 490 564 30,700 -1,200 Descending FlightAware
09:24AM 33.0220 33.1350 122° Southeast 482 555 29,700 -2,580 Descending FlightAware
09:25AM 32.9720 33.2310 122° Southeast 485 558 27,700 -2,640 Descending FlightAware
09:26AM 32.9370 33.2990 122° Southeast 477 549 26,600 -2,220 Descending FlightAware
09:26AM 32.8960 33.3780 122° Southeast 466 536 25,200 -2,340 Descending FlightAware
09:27AM 32.8430 33.4790 122° Southeast 453 521 23,400 -2,340 Descending FlightAware
09:28AM 32.8010 33.5610 121° Southeast 444 511 22,000 -2,280 Descending FlightAware
09:28AM 32.7600 33.6390 122° Southeast 432 497 20,500 -2,280 Descending FlightAware
09:29AM 32.7150 33.7240 122° Southeast 419 482 18,900 -2,220 Descending FlightAware
09:30AM 32.6780 33.7950 122° Southeast 408 470 17,600 -2,100 Descending FlightAware
09:31AM 32.6240 33.8980 122° Southeast 392 451 15,700 -2,040 Descending FlightAware
09:31AM 32.5890 33.9650 122° Southeast 383 441 14,500 -2,040 Descending FlightAware
09:32AM 32.5600 34.0190 122° Southeast 377 434 13,400 -2,100 Descending FlightAware
09:32AM 32.5180 34.0970 123° Southeast 368 423 11,900 -1,860 Descending FlightAware
09:33AM 32.4820 34.1600 124° Southeast 358 412 10,800 -1,140 Descending FlightAware
09:34AM 32.4410 34.2120 133° Southeast 326 375 10,500 -480 Descending FlightAware
09:34AM 32.4000 34.2610 135° Southeast 301 346 10,200 -240 Descending FlightAware
09:35AM 32.3590 34.3100 135° Southeast 301 346 10,200  Level FlightAware
09:36AM 32.3280 34.3460 136° Southeast 301 346 10,200  Level FlightAware
09:39AM 32.1118 34.7228 133° Southeast  Level FlightAware Approximate
09:40AM 32.0140 34.8481 131° Southeast  Level FlightAware Approximate
09:41AM 32.0000 34.8667 131° Southeast  Level FlightAware Approximate
09:42AM 32.0095 34.8769 131° Southeast  Level Estimated
09:43AM 32.0095 34.8769 131° Southeast  Level Estimated
09:44AM 32.0095 34.8769 131° Southeast  Level Estimated
09:45AM 32.0095 34.8769 131° Southeast  Level Estimated
09:46AM 32.0095 34.8769 131° Southeast  Level Estimated
09:47AM 32.0095 34.8769 131° Southeast  Level Estimated
09:48AM 32.0095 34.8769 131° Southeast  Level Estimated
09:49AM 32.0095 34.8769 131° Southeast  Level Estimated